Time;durP1;ratioP1;P1;durP2;ratioP2;P2;SDS_P1;SDS_P2;PMS_P1;PMS_P2;Temp;Humidity;BMP_temperature;BMP_pressure;BME280_temperature;BME280_humidity;BME280_pressure;Samples;Min_cycle;Max_cycle;Signal;HPM_P1;HPM_P2
2022/10/09 00:00:44;;;;;;;2.92;2.30;;;;;;;8.61;100.00;96632.53;5070384;28;25041;-72
2022/10/09 00:03:11;;;;;;;5.30;2.10;;;;;;;8.30;100.00;96625.97;5070215;28;24496;-72
2022/10/09 00:05:39;;;;;;;6.60;2.10;;;;;;;8.46;100.00;96624.50;5069940;28;24500;-71
2022/10/09 00:08:06;;;;;;;2.22;1.50;;;;;;;8.37;100.00;96622.28;5070696;28;20769;-72
2022/10/09 00:10:33;;;;;;;3.70;1.65;;;;;;;8.38;100.00;96621.41;5070567;28;20761;-72
2022/10/09 00:12:59;;;;;;;4.10;1.90;;;;;;;8.26;100.00;96621.84;5070190;28;24431;-72
2022/10/09 00:15:26;;;;;;;4.00;1.63;;;;;;;8.17;100.00;96623.06;5070114;28;24514;-72
2022/10/09 00:17:52;;;;;;;2.92;2.05;;;;;;;8.13;100.00;96618.09;5070199;28;24975;-72
2022/10/09 00:20:19;;;;;;;6.35;2.55;;;;;;;8.17;100.00;96617.91;5069978;28;21154;-72
2022/10/09 00:22:47;;;;;;;5.27;2.40;;;;;;;7.96;100.00;96614.41;5070094;28;21390;-72
2022/10/09 00:25:13;;;;;;;4.18;2.47;;;;;;;7.89;100.00;96618.13;5070003;28;20806;-71
2022/10/09 00:27:40;;;;;;;6.47;3.25;;;;;;;7.91;100.00;96618.09;5070176;28;24527;-72
2022/10/09 00:30:08;;;;;;;5.97;3.60;;;;;;;7.71;100.00;96614.53;5069843;28;24453;-72
2022/10/09 00:32:34;;;;;;;6.10;3.47;;;;;;;7.65;100.00;96601.03;5069603;28;24431;-72
2022/10/09 00:35:00;;;;;;;6.32;3.40;;;;;;;7.66;100.00;96603.53;5069767;28;24438;-72
2022/10/09 00:37:28;;;;;;;5.88;3.00;;;;;;;7.67;100.00;96599.22;5070000;28;24792;-72
2022/10/09 00:39:56;;;;;;;5.18;2.85;;;;;;;7.82;100.00;96603.78;5070203;28;24426;-72
2022/10/09 00:42:24;;;;;;;4.97;2.90;;;;;;;7.89;100.00;96606.97;5067829;28;24431;-72
2022/10/09 00:44:56;;;;;;;5.15;2.97;;;;;;;7.94;100.00;96597.34;5064227;28;24433;-72
2022/10/09 00:47:27;;;;;;;4.07;2.38;;;;;;;7.90;100.00;96599.19;5072248;28;20724;-72
2022/10/09 00:49:58;;;;;;;3.75;2.08;;;;;;;7.90;100.00;96598.38;5073346;28;20689;-71
2022/10/09 00:52:26;;;;;;;3.17;1.98;;;;;;;7.93;100.00;96605.97;5069802;28;20796;-72
2022/10/09 00:54:53;;;;;;;2.78;1.95;;;;;;;8.00;100.00;96597.91;5069696;28;24437;-72
2022/10/09 00:57:21;;;;;;;3.63;2.30;;;;;;;7.89;100.00;96599.25;5069373;28;25097;-72
2022/10/09 00:59:48;;;;;;;2.92;2.00;;;;;;;7.58;100.00;96592.69;5069538;28;20805;-72
2022/10/09 01:02:14;;;;;;;4.30;1.90;;;;;;;7.42;100.00;96586.44;5069586;28;20776;-71
2022/10/09 01:04:41;;;;;;;2.83;2.00;;;;;;;7.41;100.00;96592.47;5069030;28;24987;-72
2022/10/09 01:07:22;;;;;;;4.70;1.90;;;;;;;7.40;100.00;96594.22;5069506;28;20765;-72
2022/10/09 01:09:57;;;;;;;3.55;2.35;;;;;;;7.32;100.00;96583.34;5069279;28;20786;-72
2022/10/09 01:12:34;;;;;;;6.55;2.20;;;;;;;7.49;100.00;96587.88;5069023;28;20652;-72
2022/10/09 01:15:09;;;;;;;2.60;1.95;;;;;;;7.34;100.00;96589.31;5068756;28;21347;-72
2022/10/09 01:17:40;;;;;;;6.03;2.37;;;;;;;7.24;100.00;96580.22;5067964;28;20835;-72
2022/10/09 01:20:29;;;;;;;3.58;2.42;;;;;;;7.24;100.00;96583.63;5069598;28;20702;-72
2022/10/09 01:23:11;;;;;;;3.35;2.35;;;;;;;7.23;100.00;96584.53;5064394;28;20761;-72
2022/10/09 01:25:50;;;;;;;6.50;2.63;;;;;;;7.32;100.00;96583.34;5065372;28;20852;-72
2022/10/09 01:28:21;;;;;;;3.47;2.35;;;;;;;7.35;100.00;96580.66;5069211;28;20685;-72
2022/10/09 01:30:48;;;;;;;4.22;2.50;;;;;;;7.30;100.00;96577.41;5069020;28;21093;-72
2022/10/09 01:33:16;;;;;;;3.88;2.63;;;;;;;7.30;100.00;96579.16;5068743;28;20770;-72
2022/10/09 01:35:44;;;;;;;3.92;2.30;;;;;;;7.30;100.00;96577.41;5068961;28;21132;-72
2022/10/09 01:38:11;;;;;;;8.63;2.50;;;;;;;7.30;100.00;96572.25;5069284;28;20781;-72
2022/10/09 01:40:39;;;;;;;3.22;2.63;;;;;;;7.35;100.00;96574.69;5068860;28;24434;-72
2022/10/09 01:43:05;;;;;;;4.70;2.63;;;;;;;7.38;100.00;96575.41;5067582;28;20813;-71
2022/10/09 01:45:39;;;;;;;4.25;2.20;;;;;;;7.31;100.00;96573.13;5068598;28;20769;-72
2022/10/09 01:48:09;;;;;;;2.70;2.33;;;;;;;7.19;100.00;96566.66;5069193;28;20690;-72
2022/10/09 01:50:40;;;;;;;2.67;2.10;;;;;;;7.16;100.00;96559.06;5068752;28;21676;-72
2022/10/09 01:53:11;;;;;;;4.72;2.80;;;;;;;7.12;100.00;96562.63;5068190;28;24778;-71
2022/10/09 01:55:43;;;;;;;3.55;2.28;;;;;;;7.11;100.00;96551.47;5068632;28;20770;-71
2022/10/09 01:58:17;;;;;;;3.80;2.35;;;;;;;7.14;100.00;96547.97;5068623;28;20692;-71
2022/10/09 02:00:51;;;;;;;4.22;2.28;;;;;;;7.16;100.00;96548.75;5068887;28;20725;-72
2022/10/09 02:03:18;;;;;;;5.03;2.60;;;;;;;7.14;100.00;96546.22;5068810;28;20839;-71
2022/10/09 02:05:48;;;;;;;4.35;2.58;;;;;;;7.09;100.00;96542.16;5068398;28;21382;-72
2022/10/09 02:08:18;;;;;;;4.20;2.58;;;;;;;7.09;100.00;96542.16;5068682;28;21092;-72
2022/10/09 02:10:48;;;;;;;4.50;2.67;;;;;;;7.09;100.00;96532.69;5068452;28;21040;-72
2022/10/09 02:13:15;;;;;;;32.65;1.88;;;;;;;6.90;100.00;96535.09;5068654;28;20760;-71
2022/10/09 02:15:48;;;;;;;38.13;1.95;;;;;;;6.73;100.00;96527.13;5068318;28;24446;-72
2022/10/09 02:18:19;;;;;;;62.08;2.38;;;;;;;6.75;100.00;96528.75;5059069;28;21308;-71
2022/10/09 02:20:51;;;;;;;29.10;1.83;;;;;;;6.76;100.00;96525.28;5068834;28;20834;-72
2022/10/09 02:23:19;;;;;;;22.17;2.05;;;;;;;6.90;100.00;96517.06;5060679;28;24454;-72
2022/10/09 02:25:46;;;;;;;19.95;1.58;;;;;;;6.99;100.00;96526.19;5068633;28;20797;-71
2022/10/09 02:28:13;;;;;;;17.33;2.13;;;;;;;7.02;100.00;96524.34;5072205;28;24440;-72
2022/10/09 02:30:49;;;;;;;15.32;2.47;;;;;;;7.01;100.00;96520.09;5072423;28;20785;-72
2022/10/09 02:33:16;;;;;;;16.90;2.17;;;;;;;6.99;100.00;96515.88;5067167;28;20907;-71
2022/10/09 02:35:43;;;;;;;11.97;2.17;;;;;;;7.05;100.00;96509.69;5072095;28;20780;-72
2022/10/09 02:38:09;;;;;;;21.98;2.20;;;;;;;7.03;100.00;96512.28;5072569;28;24437;-71
2022/10/09 02:40:36;;;;;;;15.70;2.25;;;;;;;6.97;100.00;96515.94;5064527;28;24427;-72
2022/10/09 02:43:02;;;;;;;12.88;1.90;;;;;;;6.87;100.00;96514.59;5068898;28;24431;-72
2022/10/09 02:45:29;;;;;;;9.52;2.13;;;;;;;6.84;100.00;96516.44;5072023;28;24887;-72
2022/10/09 02:47:56;;;;;;;9.23;2.03;;;;;;;6.95;100.00;96516.88;5072271;28;24472;-72
2022/10/09 02:50:23;;;;;;;4.90;2.35;;;;;;;6.89;100.00;96517.09;5071870;28;24474;-72
2022/10/09 02:52:49;;;;;;;8.45;2.30;;;;;;;6.82;100.00;96510.50;5072103;28;24434;-72
2022/10/09 02:55:16;;;;;;;15.95;2.55;;;;;;;6.74;100.00;96514.19;5071852;28;24527;-72
2022/10/09 02:57:42;;;;;;;11.10;2.50;;;;;;;6.62;100.00;96512.06;5071998;28;24968;-72
2022/10/09 03:00:10;;;;;;;13.45;1.95;;;;;;;6.59;100.00;96507.00;5071993;28;24839;-72
2022/10/09 03:02:37;;;;;;;16.33;2.50;;;;;;;6.56;100.00;96509.69;5071571;28;24438;-72
2022/10/09 03:05:06;;;;;;;7.25;2.03;;;;;;;6.62;100.00;96508.63;5071576;28;24998;-72
2022/10/09 03:07:32;;;;;;;7.03;2.20;;;;;;;6.60;100.00;96516.44;5072036;28;25048;-71
2022/10/09 03:09:59;;;;;;;14.13;2.00;;;;;;;6.54;100.00;96512.31;5071352;28;24454;-72
2022/10/09 03:12:25;;;;;;;14.27;2.17;;;;;;;6.55;100.00;96508.00;5071490;28;24461;-71
2022/10/09 03:14:52;;;;;;;7.05;1.95;;;;;;;6.44;100.00;96508.38;5071515;28;24439;-72
2022/10/09 03:17:18;;;;;;;5.22;2.00;;;;;;;6.41;100.00;96505.91;5069961;28;24465;-72
2022/10/09 03:19:45;;;;;;;6.20;2.00;;;;;;;6.37;100.00;96509.47;5071707;28;24435;-72
2022/10/09 03:22:12;;;;;;;7.32;1.88;;;;;;;6.28;100.00;96507.25;5071472;28;24804;-72
2022/10/09 03:24:39;;;;;;;8.55;1.90;;;;;;;6.21;100.00;96504.03;5071281;28;24437;-71
2022/10/09 03:27:05;;;;;;;6.10;1.58;;;;;;;6.19;100.00;96510.09;5071579;28;24426;-72
2022/10/09 03:29:32;;;;;;;10.25;1.73;;;;;;;5.99;100.00;96501.31;5071417;28;24808;-71
2022/10/09 03:31:58;;;;;;;11.82;1.65;;;;;;;6.00;100.00;96504.72;5071386;28;24427;-72
2022/10/09 03:34:25;;;;;;;6.00;1.27;;;;;;;5.89;100.00;96505.06;5070973;28;24986;-72
2022/10/09 03:36:51;;;;;;;12.60;1.50;;;;;;;5.89;100.00;96504.22;5071592;28;24438;-71
2022/10/09 03:39:19;;;;;;;5.53;1.60;;;;;;;5.78;100.00;96502.84;5070873;28;24427;-72
2022/10/09 03:41:46;;;;;;;18.52;2.00;;;;;;;5.76;100.00;96509.75;5068871;28;24433;-72
2022/10/09 03:44:12;;;;;;;9.13;1.60;;;;;;;5.81;100.00;96504.47;5068212;28;24427;-72
2022/10/09 03:46:39;;;;;;;6.50;1.50;;;;;;;5.82;100.00;96501.00;5071395;28;25408;-72
2022/10/09 03:49:06;;;;;;;6.90;1.20;;;;;;;5.80;100.00;96511.34;5074205;28;24462;-71
2022/10/09 03:51:33;;;;;;;3.90;1.20;;;;;;;5.89;100.00;96512.75;5073008;28;24481;-72
2022/10/09 03:53:59;;;;;;;1.50;1.30;;;;;;;5.86;100.00;96512.88;5072568;28;24807;-72
2022/10/09 03:56:27;;;;;;;7.05;1.60;;;;;;;5.76;100.00;96507.19;5072269;28;24426;-72
2022/10/09 03:58:54;;;;;;;3.20;1.33;;;;;;;5.74;100.00;96502.97;5072445;22;24472;-72
2022/10/09 04:01:20;;;;;;;2.50;1.20;;;;;;;5.69;100.00;96510.00;5050367;28;24423;-72
2022/10/09 04:03:47;;;;;;;2.20;1.40;;;;;;;5.74;100.00;96505.56;5050113;28;24435;-72
2022/10/09 04:06:13;;;;;;;7.32;1.70;;;;;;;5.71;100.00;96501.38;5050861;28;24438;-72
2022/10/09 04:08:40;;;;;;;6.72;1.23;;;;;;;5.66;100.00;96500.66;5050476;28;25006;-72
2022/10/09 04:11:07;;;;;;;6.97;1.20;;;;;;;5.62;100.00;96501.66;5050291;28;24458;-72
2022/10/09 04:13:34;;;;;;;5.70;1.40;;;;;;;5.58;100.00;96500.06;5049698;28;24428;-72
2022/10/09 04:16:01;;;;;;;6.55;1.27;;;;;;;5.64;100.00;96504.19;5050659;28;24433;-72
2022/10/09 04:18:28;;;;;;;2.90;1.10;;;;;;;5.65;100.00;96498.16;5050415;28;24431;-72
2022/10/09 04:20:56;;;;;;;13.40;1.70;;;;;;;5.55;100.00;96503.56;5050322;28;24433;-71
2022/10/09 04:23:24;;;;;;;8.50;1.27;;;;;;;5.65;100.00;96500.72;5049899;28;24431;-71
2022/10/09 04:25:53;;;;;;;3.17;1.13;;;;;;;5.62;100.00;96506.78;5050353;28;24427;-71
2022/10/09 04:28:19;;;;;;;5.03;1.20;;;;;;;5.62;100.00;96503.38;5050030;28;24442;-71
2022/10/09 04:30:47;;;;;;;8.57;1.27;;;;;;;5.64;100.00;96506.75;5050129;28;24455;-70
2022/10/09 04:33:14;;;;;;;4.07;1.30;;;;;;;5.56;100.00;96501.81;5049765;28;24443;-71
2022/10/09 04:35:41;;;;;;;1.30;1.00;;;;;;;5.76;100.00;96493.50;5049812;28;24431;-71
2022/10/09 04:38:08;;;;;;;4.57;1.30;;;;;;;5.58;100.00;96490.63;5049871;28;24435;-71
2022/10/09 04:40:34;;;;;;;3.45;1.23;;;;;;;5.45;100.00;96483.34;5049723;28;24434;-71
2022/10/09 04:43:01;;;;;;;7.35;1.23;;;;;;;5.34;100.00;96494.81;5042433;28;24439;-71
2022/10/09 04:45:27;;;;;;;4.88;1.45;;;;;;;5.22;100.00;96490.03;5049514;28;24427;-70
2022/10/09 04:47:55;;;;;;;18.10;1.73;;;;;;;5.15;100.00;96490.25;5049695;28;25003;-71
2022/10/09 04:50:22;;;;;;;9.13;1.23;;;;;;;5.10;100.00;96487.81;5048814;28;24448;-71
2022/10/09 04:52:48;;;;;;;1.38;1.20;;;;;;;5.13;100.00;96481.78;5049445;28;24792;-71
2022/10/09 04:55:15;;;;;;;15.88;1.70;;;;;;;5.18;100.00;96482.47;5049050;28;25006;-71
2022/10/09 04:57:42;;;;;;;17.38;1.63;;;;;;;5.11;100.00;96484.38;5049717;28;24439;-71
2022/10/09 05:00:09;;;;;;;5.60;1.40;;;;;;;5.19;100.00;96479.00;5049222;28;24424;-71
2022/10/09 05:02:36;;;;;;;4.07;1.40;;;;;;;5.29;100.00;96485.53;5049214;28;24438;-71
2022/10/09 05:05:04;;;;;;;4.00;1.00;;;;;;;5.27;100.00;96485.59;5049302;28;24435;-71
2022/10/09 05:07:31;;;;;;;6.60;1.30;;;;;;;5.23;100.00;96478.03;5049593;28;25003;-71
2022/10/09 05:09:57;;;;;;;8.13;1.60;;;;;;;5.16;100.00;96479.94;5048931;28;25013;-71
2022/10/09 05:12:24;;;;;;;1.80;1.25;;;;;;;5.20;100.00;96483.28;5049255;28;24473;-71
2022/10/09 05:14:50;;;;;;;7.13;1.48;;;;;;;5.15;100.00;96487.69;5049167;28;24439;-71
2022/10/09 05:17:17;;;;;;;1.67;1.40;;;;;;;5.06;100.00;96483.69;5049180;28;24447;-71
2022/10/09 05:19:43;;;;;;;9.20;1.30;;;;;;;5.18;100.00;96483.31;5049468;28;24438;-71
2022/10/09 05:22:11;;;;;;;4.53;1.30;;;;;;;5.24;100.00;96492.56;5048695;28;24825;-71
2022/10/09 05:24:38;;;;;;;5.38;1.45;;;;;;;5.31;100.00;96489.75;5048628;28;24458;-71
2022/10/09 05:27:04;;;;;;;2.92;1.10;;;;;;;5.23;100.00;96485.75;5049246;28;24442;-71
2022/10/09 05:29:31;;;;;;;2.38;1.75;;;;;;;5.28;100.00;96484.72;5043336;28;24438;-71
2022/10/09 05:31:57;;;;;;;4.75;1.55;;;;;;;5.16;100.00;96479.13;5048273;28;25021;-71
2022/10/09 05:34:24;;;;;;;11.07;1.50;;;;;;;5.16;100.00;96479.13;5048191;28;24427;-71
2022/10/09 05:36:50;;;;;;;10.15;1.63;;;;;;;5.11;100.00;96484.38;5048325;28;24999;-71
2022/10/09 05:39:18;;;;;;;3.10;1.20;;;;;;;5.04;100.00;96486.31;5047985;28;24439;-72
2022/10/09 05:41:45;;;;;;;11.57;1.50;;;;;;;5.06;100.00;96489.66;5048931;28;24435;-72
2022/10/09 05:44:11;;;;;;;9.75;1.50;;;;;;;4.91;100.00;96479.84;5048305;28;24984;-72
2022/10/09 05:46:38;;;;;;;7.50;1.10;;;;;;;4.81;100.00;96493.81;5048793;28;25018;-72
2022/10/09 05:49:05;;;;;;;5.75;1.10;;;;;;;4.72;100.00;96491.50;5048953;28;24439;-73
2022/10/09 05:51:33;;;;;;;5.45;1.00;;;;;;;4.79;100.00;96488.72;5047507;28;24516;-72
2022/10/09 05:54:01;;;;;;;11.60;1.20;;;;;;;4.75;100.00;96487.13;5048310;28;24431;-72
2022/10/09 05:56:31;;;;;;;14.82;1.10;;;;;;;4.70;100.00;96486.41;5049054;28;24489;-72
2022/10/09 05:58:59;;;;;;;8.23;1.52;;;;;;;4.78;100.00;96488.75;5048623;28;24435;-72
2022/10/09 06:01:27;;;;;;;7.82;1.30;;;;;;;4.84;100.00;96486.03;5050753;28;24789;-71
2022/10/09 06:03:55;;;;;;;5.97;1.35;;;;;;;4.96;100.00;96477.97;5052117;28;24428;-71
2022/10/09 06:06:24;;;;;;;8.45;1.20;;;;;;;4.89;100.00;96489.28;5053145;28;24886;-71
2022/10/09 06:08:51;;;;;;;8.75;1.20;;;;;;;4.94;100.00;96473.78;5053261;28;24431;-71
2022/10/09 06:11:20;;;;;;;3.42;1.20;;;;;;;4.97;100.00;96481.34;5052485;28;24451;-71
2022/10/09 06:13:48;;;;;;;4.20;1.20;;;;;;;4.98;100.00;96481.34;5052008;28;24438;-71
2022/10/09 06:16:16;;;;;;;8.70;1.20;;;;;;;4.94;100.00;96482.31;5052651;28;24431;-71
2022/10/09 06:18:45;;;;;;;5.25;1.27;;;;;;;4.98;100.00;96478.78;5052525;28;24435;-71
2022/10/09 06:21:13;;;;;;;6.18;0.98;;;;;;;4.94;100.00;96479.75;5052509;28;24432;-71
2022/10/09 06:23:40;;;;;;;6.30;1.25;;;;;;;4.92;100.00;96486.63;5051914;28;24442;-71
2022/10/09 06:26:09;;;;;;;1.20;1.10;;;;;;;4.99;100.00;96489.88;5052483;28;25066;-71
2022/10/09 06:28:36;;;;;;;5.90;1.40;;;;;;;5.06;100.00;96491.38;5052524;28;24443;-72
2022/10/09 06:31:06;;;;;;;2.33;1.17;;;;;;;5.15;100.00;96490.25;5052012;28;24454;-72
2022/10/09 06:33:34;;;;;;;5.50;1.20;;;;;;;5.28;100.00;96489.00;5044217;28;24427;-72
2022/10/09 06:36:02;;;;;;;1.55;0.98;;;;;;;5.30;100.00;96488.09;5052497;28;24442;-72
2022/10/09 06:38:29;;;;;;;2.58;1.00;;;;;;;5.46;100.00;96487.59;5052243;28;24443;-72
2022/10/09 06:40:55;;;;;;;11.35;1.40;;;;;;;5.50;100.00;96490.03;5052138;28;24442;-72
2022/10/09 06:43:22;;;;;;;4.43;1.30;;;;;;;5.52;100.00;96495.94;5051887;28;24797;-72
2022/10/09 06:45:48;;;;;;;5.30;1.00;;;;;;;5.51;100.00;96489.13;5051611;28;24442;-72
2022/10/09 06:48:16;;;;;;;9.60;1.30;;;;;;;5.52;100.00;96490.81;5052206;28;24435;-72
2022/10/09 06:50:43;;;;;;;7.72;1.00;;;;;;;5.57;100.00;96495.81;5051837;28;24454;-72
2022/10/09 06:53:09;;;;;;;9.82;1.30;;;;;;;5.69;100.00;96497.16;5051420;28;24446;-72
2022/10/09 06:55:36;;;;;;;3.92;1.10;;;;;;;5.77;100.00;96502.88;5051594;28;24442;-72
2022/10/09 06:58:02;;;;;;;5.28;1.33;;;;;;;5.78;100.00;96495.16;5051680;28;24442;-72
2022/10/09 07:00:29;;;;;;;7.38;1.13;;;;;;;5.90;100.00;96498.22;5051524;28;24432;-72
2022/10/09 07:02:56;;;;;;;14.23;1.47;;;;;;;5.94;100.00;96504.97;5051434;28;24431;-72
2022/10/09 07:05:23;;;;;;;2.40;1.47;;;;;;;6.14;100.00;96505.13;5051552;28;24427;-72
2022/10/09 07:07:50;;;;;;;4.38;1.60;;;;;;;6.39;100.00;96501.72;5051811;28;24435;-71
2022/10/09 07:10:16;;;;;;;2.80;1.50;;;;;;;6.58;100.00;96510.47;5051497;28;24435;-71
2022/10/09 07:12:43;;;;;;;3.47;2.00;;;;;;;6.73;100.00;96501.38;5050575;28;24435;-71
2022/10/09 07:15:10;;;;;;;10.20;2.22;;;;;;;6.96;100.00;96505.69;5050436;28;24992;-72
2022/10/09 07:17:37;;;;;;;3.67;2.30;;;;;;;7.05;100.00;96507.09;5051267;28;20763;-71
2022/10/09 07:20:04;;;;;;;2.10;1.90;;;;;;;7.08;100.00;96506.97;5051724;28;24438;-71
2022/10/09 07:22:32;;;;;;;3.70;1.90;;;;;;;7.09;100.00;96503.50;5052222;28;20771;-71
2022/10/09 07:24:58;;;;;;;2.63;1.80;;;;;;;7.21;100.00;96508.19;5051918;28;20812;-71
2022/10/09 07:27:25;;;;;;;5.15;2.20;;;;;;;7.41;100.00;96505.69;5051589;28;24442;-70
2022/10/09 07:29:51;;;;;;;2.60;2.17;;;;;;;7.56;100.00;96500.84;5051881;28;24434;-70
2022/10/09 07:32:18;;;;;;;2.78;2.10;;;;;;;7.81;100.00;96503.28;5051600;28;24451;-71
2022/10/09 07:34:44;;;;;;;2.10;1.90;;;;;;;7.92;100.00;96503.69;5051911;28;24439;-71
2022/10/09 07:37:11;;;;;;;2.10;1.88;;;;;;;7.96;100.00;96511.25;5052017;28;24995;-71
2022/10/09 07:39:39;;;;;;;6.33;2.43;;;;;;;8.10;100.00;96502.94;5051562;28;24484;-70
2022/10/09 07:42:05;;;;;;;4.25;2.35;;;;;;;7.97;100.00;96500.03;5047889;28;20818;-71
2022/10/09 07:44:32;;;;;;;2.53;2.20;;;;;;;8.44;100.00;96499.81;5051277;28;24988;-70
2022/10/09 07:46:58;;;;;;;3.63;2.00;;;;;;;8.97;100.00;96490.63;5051542;28;24436;-71
2022/10/09 07:49:25;;;;;;;3.28;2.20;;;;;;;9.23;100.00;96486.84;5051470;28;24517;-71
2022/10/09 07:51:51;;;;;;;3.05;2.47;;;;;;;9.70;100.00;96486.38;5051426;28;24482;-71
2022/10/09 07:54:18;;;;;;;3.97;2.63;;;;;;;10.00;100.00;96484.06;5051025;28;24442;-71
2022/10/09 07:56:46;;;;;;;2.40;2.03;;;;;;;10.39;100.00;96483.03;5051469;28;24506;-72
2022/10/09 07:59:14;;;;;;;2.58;2.38;;;;;;;10.66;100.00;96486.78;5050976;28;25032;-71
2022/10/09 08:01:41;;;;;;;5.82;2.53;;;;;;;10.99;100.00;96493.72;5050991;28;24427;-71
2022/10/09 08:04:08;;;;;;;3.92;2.33;;;;;;;11.25;100.00;96489.75;5050756;28;24792;-71
2022/10/09 08:06:34;;;;;;;4.50;2.13;;;;;;;11.19;100.00;96484.03;5050914;28;25024;-71
2022/10/09 08:09:02;;;;;;;3.25;2.47;;;;;;;10.99;100.00;96493.72;5050753;28;24797;-71
2022/10/09 08:11:29;;;;;;;2.30;2.08;;;;;;;10.83;100.00;96488.50;5050536;28;24470;-71
2022/10/09 08:13:58;;;;;;;4.15;2.30;;;;;;;10.58;100.00;96488.94;5050481;28;24427;-71
2022/10/09 08:16:26;;;;;;;3.40;2.28;;;;;;;10.46;100.00;96483.56;5051104;28;24801;-71
2022/10/09 08:18:55;;;;;;;3.30;2.35;;;;;;;10.98;100.00;96491.22;5050804;28;24431;-71
2022/10/09 08:21:22;;;;;;;4.50;2.58;;;;;;;11.13;100.00;96472.25;5050553;28;24459;-69
2022/10/09 08:23:52;;;;;;;5.05;2.80;;;;;;;11.19;100.00;96486.63;5048845;28;24434;-71
2022/10/09 08:26:21;;;;;;;6.43;2.40;;;;;;;11.46;100.00;96487.75;5050398;28;24439;-71
2022/10/09 08:28:50;;;;;;;5.17;2.93;;;;;;;11.89;100.00;96485.38;5050616;28;24825;-72
2022/10/09 08:31:18;;;;;;;5.75;2.75;;;;;;;11.98;100.00;96486.63;5050051;28;24454;-73
2022/10/09 08:33:45;;;;;;;8.90;2.77;;;;;;;12.37;100.00;96480.88;5049493;28;24813;-73
2022/10/09 08:36:14;;;;;;;4.87;3.13;;;;;;;12.92;100.00;96482.78;5050013;28;24460;-73
2022/10/09 08:38:41;;;;;;;8.13;2.58;;;;;;;13.15;100.00;96473.56;5050292;28;24446;-73
2022/10/09 08:41:13;;;;;;;4.65;2.67;;;;;;;13.44;100.00;96469.19;5042511;28;25210;-73
2022/10/09 08:43:42;;;;;;;5.10;3.10;;;;;;;13.85;100.00;96472.69;5049347;28;24883;-73
2022/10/09 08:46:17;;;;;;;4.68;2.78;;;;;;;13.92;93.95;96468.75;5049811;28;24442;-74
2022/10/09 08:48:48;;;;;;;5.82;2.95;;;;;;;13.85;96.83;96467.47;5049856;28;24442;-73
2022/10/09 08:51:21;;;;;;;9.30;2.80;;;;;;;13.48;93.64;96469.81;5049878;28;24474;-73
2022/10/09 08:53:54;;;;;;;4.82;2.42;;;;;;;13.61;93.34;96470.75;5049220;28;24814;-73
2022/10/09 08:56:22;;;;;;;5.45;2.28;;;;;;;13.57;88.95;96469.22;5050182;28;24431;-73
2022/10/09 08:58:49;;;;;;;7.63;2.50;;;;;;;13.62;90.85;96464.59;5049445;28;24435;-73
2022/10/09 09:01:24;;;;;;;7.28;2.45;;;;;;;13.74;92.63;96462.97;5049283;28;24423;-73
2022/10/09 09:04:23;;;;;;;5.05;2.45;;;;;;;13.94;90.56;96465.13;5049027;28;24424;-73
2022/10/09 09:07:00;;;;;;;5.53;2.60;;;;;;;14.07;95.67;96462.53;5044115;28;24443;-73
2022/10/09 09:09:37;;;;;;;4.83;2.70;;;;;;;14.32;95.50;96461.75;5049074;28;25044;-73
2022/10/09 09:12:09;;;;;;;11.27;2.83;;;;;;;14.48;93.01;96451.97;5049374;28;24979;-73
2022/10/09 09:14:48;;;;;;;5.45;2.75;;;;;;;14.41;93.66;96462.91;5042028;28;24419;-73
2022/10/09 09:17:22;;;;;;;5.60;2.50;;;;;;;14.26;89.77;96463.00;5048877;28;24992;-73
2022/10/09 09:20:03;;;;;;;4.57;2.53;;;;;;;14.14;89.80;96450.78;5041004;28;24442;-73
2022/10/09 09:22:31;;;;;;;7.20;2.47;;;;;;;14.28;88.29;96449.88;5041148;28;24431;-73
2022/10/09 09:24:59;;;;;;;8.35;2.30;;;;;;;14.34;91.00;96448.63;5045654;28;24438;-73
2022/10/09 09:27:30;;;;;;;12.50;2.40;;;;;;;14.38;91.62;96448.31;5041237;28;24438;-73
2022/10/09 09:30:02;;;;;;;6.25;2.67;;;;;;;14.49;85.49;96450.19;5047914;28;24432;-73
2022/10/09 09:32:32;;;;;;;5.78;2.25;;;;;;;14.21;87.92;96443.41;5046728;28;24943;-73
2022/10/09 09:35:11;;;;;;;7.83;2.90;;;;;;;13.91;88.11;96448.88;5051169;28;24430;-73
2022/10/09 09:37:38;;;;;;;4.88;2.30;;;;;;;13.90;90.08;96436.75;5049114;28;24968;-73
2022/10/09 09:40:06;;;;;;;6.07;2.33;;;;;;;13.86;85.34;96441.34;5051165;28;24499;-73
2022/10/09 09:42:32;;;;;;;4.88;2.45;;;;;;;13.82;85.45;96439.88;5051359;28;24435;-73
2022/10/09 09:45:04;;;;;;;4.15;2.30;;;;;;;14.02;90.74;96434.19;5047635;28;24454;-73
2022/10/09 09:47:36;;;;;;;7.25;2.67;;;;;;;13.99;87.28;96429.19;5047079;28;24526;-73
2022/10/09 09:50:06;;;;;;;5.05;2.10;;;;;;;14.24;87.92;96428.41;5045945;28;25012;-73
2022/10/09 09:52:39;;;;;;;7.88;2.20;;;;;;;14.38;83.36;96430.06;5043458;28;24447;-73
2022/10/09 09:55:07;;;;;;;3.22;2.03;;;;;;;14.47;87.49;96421.63;5010254;28;24428;-72
2022/10/09 10:00:19;;;;;;;3.70;2.10;;;;;;;14.71;84.65;96411.31;5022430;28;24454;-71
2022/10/09 10:02:46;;;;;;;5.10;2.00;;;;;;;14.91;85.92;96407.34;5009218;28;24435;-73
2022/10/09 10:05:26;;;;;;;4.13;2.15;;;;;;;14.73;86.56;96406.03;5014680;28;24432;-71
2022/10/09 10:07:56;;;;;;;4.68;2.00;;;;;;;14.61;85.30;96402.50;5020780;28;24450;-72
2022/10/09 10:10:25;;;;;;;4.75;2.10;;;;;;;14.90;81.57;96403.06;5005063;28;24527;-72
2022/10/09 10:12:54;;;;;;;4.57;2.00;;;;;;;14.81;81.83;96401.09;5007335;28;24483;-72
2022/10/09 10:15:24;;;;;;;4.10;2.10;;;;;;;14.75;80.85;96401.50;5009114;28;24436;-71
2022/10/09 10:17:58;;;;;;;4.72;1.92;;;;;;;14.88;84.17;96397.13;5000746;28;24436;-72
2022/10/09 10:20:27;;;;;;;3.25;1.85;;;;;;;14.69;83.71;96392.34;5010703;28;24797;-73
2022/10/09 10:22:56;;;;;;;4.85;2.08;;;;;;;14.62;83.49;96385.91;5011157;28;24961;-71
2022/10/09 10:25:26;;;;;;;4.25;1.80;;;;;;;14.79;89.02;96387.31;5011416;28;24439;-73
2022/10/09 10:27:57;;;;;;;5.43;2.22;;;;;;;14.93;79.06;96383.75;5007656;28;24996;-71
2022/10/09 10:30:24;;;;;;;6.80;1.92;;;;;;;15.04;84.58;96380.38;5000024;28;25328;-72
2022/10/09 10:32:56;;;;;;;6.55;2.00;;;;;;;14.56;80.35;96382.88;5003818;28;24452;-72
2022/10/09 10:35:27;;;;;;;4.88;1.80;;;;;;;14.43;81.95;96382.88;4992535;28;24433;-72
2022/10/09 10:37:58;;;;;;;4.70;1.90;;;;;;;14.62;82.49;96377.25;5009371;28;24420;-72
2022/10/09 10:40:28;;;;;;;2.38;1.42;;;;;;;14.55;80.30;96376.84;5001083;28;24437;-72
2022/10/09 10:43:15;;;;;;;5.50;1.83;;;;;;;14.65;82.78;96375.25;5004430;28;24474;-72
2022/10/09 10:45:52;;;;;;;5.78;2.05;;;;;;;14.80;80.09;96362.94;5001788;28;24498;-72
2022/10/09 10:48:23;;;;;;;3.13;1.77;;;;;;;14.97;83.44;96366.94;5003991;28;24441;-71
2022/10/09 10:51:01;;;;;;;3.50;1.83;;;;;;;15.06;78.19;96360.25;5005048;28;24986;-73
2022/10/09 10:53:41;;;;;;;4.57;1.57;;;;;;;15.06;83.49;96365.47;5003210;28;24459;-71
2022/10/09 10:56:15;;;;;;;3.40;1.90;;;;;;;15.20;80.80;96363.56;5009446;28;24424;-71
2022/10/09 10:58:53;;;;;;;3.40;1.80;;;;;;;15.25;84.90;96363.22;5005354;28;24448;-71
2022/10/09 11:01:34;;;;;;;4.07;2.00;;;;;;;15.31;85.10;96351.47;5019985;28;24438;-72
2022/10/09 11:04:17;;;;;;;7.20;1.90;;;;;;;15.40;81.62;96348.22;5005001;28;24524;-72
2022/10/09 11:06:56;;;;;;;3.15;1.70;;;;;;;15.32;79.87;96356.59;5009595;28;24523;-71
2022/10/09 11:09:28;;;;;;;4.35;1.92;;;;;;;15.36;79.10;96354.63;5004351;28;24448;-72
2022/10/09 11:12:02;;;;;;;5.20;1.73;;;;;;;15.44;74.81;96353.09;5007181;28;24459;-71
2022/10/09 11:14:39;;;;;;;3.22;1.60;;;;;;;15.43;75.33;96348.00;5008224;28;25004;-72
2022/10/09 11:17:19;;;;;;;3.85;2.00;;;;;;;15.46;74.68;96347.75;4999399;28;24937;-71
2022/10/09 11:20:22;;;;;;;7.55;2.13;;;;;;;15.48;75.45;96340.66;5005965;28;24810;-72
2022/10/09 11:23:03;;;;;;;5.03;1.98;;;;;;;15.31;84.32;96344.47;4979181;28;24440;-73
2022/10/09 11:25:34;;;;;;;4.60;1.83;;;;;;;15.29;79.33;96335.94;5011328;28;24440;-72
2022/10/09 11:28:04;;;;;;;5.18;1.83;;;;;;;15.25;85.74;96334.50;5002190;28;24437;-72
2022/10/09 11:30:37;;;;;;;5.85;1.85;;;;;;;15.25;82.75;96332.72;5011295;28;24531;-72
2022/10/09 11:33:18;;;;;;;4.53;1.67;;;;;;;15.24;82.09;96320.63;5008695;28;24456;-72
2022/10/09 11:35:48;;;;;;;6.68;1.80;;;;;;;15.15;79.54;96313.47;5003084;28;24439;-72
2022/10/09 11:38:25;;;;;;;3.17;1.63;;;;;;;15.17;82.50;96314.19;5000512;28;24437;-72
2022/10/09 11:40:52;;;;;;;5.35;1.65;;;;;;;15.13;82.70;96307.53;5009967;28;24424;-72
2022/10/09 11:43:40;;;;;;;4.43;2.10;;;;;;;15.18;82.39;96308.03;4999656;28;24425;-72